createdAt,value
2023-01-11T02:16:36.612Z,102.25
2023-01-11T02:17:36.604Z,99.91
2023-01-11T02:18:36.593Z,100.39
2023-01-11T02:19:36.545Z,99.15
2023-01-11T02:20:36.506Z,97.46
2023-01-11T02:21:36.477Z,100.73
2023-01-11T02:22:36.470Z,99.09
2023-01-11T02:23:36.452Z,100.92
2023-01-11T02:24:36.420Z,99.90
2023-01-11T02:25:36.383Z,100.56
2023-01-11T02:26:36.362Z,98.98
2023-01-11T02:27:36.332Z,100.36
2023-01-11T02:28:36.324Z,99.26
2023-01-11T02:30:36.255Z,98.88
2023-01-11T02:31:36.419Z,101.97
2023-01-11T02:32:36.199Z,100.59
2023-01-11T02:33:36.201Z,97.67
2023-01-11T02:34:36.130Z,98.60
2023-01-11T02:35:36.140Z,99.32
2023-01-11T02:36:36.107Z,96.90
2023-01-11T02:37:36.052Z,98.54
2023-01-11T02:38:36.027Z,98.08
2023-01-11T02:39:36.009Z,98.30
2023-01-11T02:40:35.996Z,98.58
2023-01-11T02:41:35.950Z,98.80
2023-01-11T02:42:35.922Z,99.35
2023-01-11T02:43:35.915Z,99.30
2023-01-11T02:44:35.902Z,99.11
2023-01-11T02:45:35.895Z,100.61
2023-01-11T02:46:35.886Z,98.39
2023-01-11T02:47:35.815Z,100.64
2023-01-11T02:48:35.778Z,101.04
2023-01-11T02:49:35.764Z,97.09
2023-01-11T02:50:35.735Z,97.83
2023-01-11T02:51:35.714Z,98.71
2023-01-11T02:52:35.702Z,95.87
2023-01-11T02:53:35.668Z,98.61
2023-01-11T02:54:35.673Z,98.14
2023-01-11T02:55:35.631Z,99.84
2023-01-11T02:56:35.612Z,98.08
2023-01-11T02:57:35.590Z,98.34
2023-01-11T02:58:35.574Z,97.44
2023-01-11T02:59:35.565Z,94.96
2023-01-11T03:00:35.510Z,98.67
2023-01-11T03:01:35.594Z,97.55
2023-01-11T03:02:35.534Z,97.15
2023-01-11T03:03:35.429Z,97.61
2023-01-11T03:04:35.412Z,98.80
2023-01-11T03:05:35.374Z,98.59
2023-01-11T03:06:35.409Z,98.92
2023-01-11T03:07:35.333Z,96.23
2023-01-11T03:08:35.308Z,98.43
2023-01-11T03:09:35.267Z,97.50
2023-01-11T03:10:35.243Z,98.41
2023-01-11T03:11:35.209Z,95.79
2023-01-11T03:12:35.190Z,96.03
2023-01-11T05:37:31.182Z,64.40
2023-01-11T06:01:30.983Z,0.00
2023-01-11T06:03:30.964Z,21.96
2023-01-11T06:04:30.936Z,27.23
2023-01-11T06:05:30.887Z,29.52
2023-01-11T06:06:30.920Z,26.12
2023-01-11T06:07:30.856Z,26.25
2023-01-11T06:08:30.864Z,26.57
2023-01-11T06:09:30.823Z,25.48
2023-01-11T06:10:30.817Z,23.56
2023-01-11T06:11:30.792Z,24.99
2023-01-11T06:12:30.778Z,25.00
2023-01-11T06:13:30.752Z,28.98
2023-01-11T06:14:30.724Z,29.08
2023-01-11T06:15:30.710Z,29.12
2023-01-11T06:16:30.810Z,29.06
2023-01-11T06:17:30.669Z,28.18
2023-01-11T06:18:30.653Z,29.10
2023-01-11T06:19:30.636Z,27.31
2023-01-11T06:20:30.624Z,14.82
2023-01-11T06:21:30.593Z,11.39
2023-01-11T06:22:30.614Z,8.85
2023-01-11T06:23:30.579Z,28.50
2023-01-11T06:24:30.529Z,27.43
2023-01-11T06:25:30.520Z,28.05
2023-01-11T06:26:30.474Z,30.39
2023-01-11T06:27:30.448Z,28.29
2023-01-11T06:28:30.449Z,25.00
2023-01-11T06:29:30.408Z,26.62
2023-01-11T06:30:30.466Z,32.51
2023-01-11T06:31:30.388Z,31.51
2023-01-11T06:32:30.344Z,30.50
2023-01-11T06:33:30.369Z,30.67
2023-01-11T06:34:30.312Z,31.70
2023-01-11T06:35:30.300Z,35.17
2023-01-11T06:36:30.324Z,34.54
2023-01-11T06:37:30.275Z,23.43
2023-01-11T06:38:30.271Z,26.19
2023-01-11T06:39:30.277Z,26.05
2023-01-11T06:40:30.244Z,24.91
2023-01-11T06:41:30.235Z,28.29
2023-01-11T06:42:30.256Z,35.90
2023-01-11T06:43:30.251Z,31.78
2023-01-11T06:44:30.248Z,42.67
2023-01-11T06:45:30.288Z,49.46
2023-01-11T06:46:30.270Z,54.40
2023-01-11T06:47:30.226Z,61.13
2023-01-11T06:48:30.214Z,63.63
2023-01-11T06:50:30.180Z,68.11
2023-01-11T06:51:30.170Z,77.02
2023-01-11T06:52:30.165Z,79.29
2023-01-11T06:53:30.138Z,85.65
2023-01-11T06:54:30.145Z,86.07
2023-01-11T06:55:30.124Z,87.22
2023-01-11T06:56:30.082Z,90.44
2023-01-11T06:57:30.069Z,98.56
2023-01-11T06:58:30.125Z,106.89
2023-01-11T06:59:30.025Z,111.48
2023-01-11T07:26:31.059Z,136.81
2023-01-11T07:27:29.911Z,143.08
2023-01-11T07:28:29.927Z,154.55
2023-01-11T07:29:30.675Z,171.01
2023-01-11T07:30:29.940Z,185.97
2023-01-11T07:31:29.653Z,186.10
2023-01-11T07:32:29.522Z,191.45
2023-01-11T07:33:29.472Z,188.05
2023-01-11T07:34:29.486Z,188.28
2023-01-11T07:35:29.466Z,188.95
2023-01-11T07:36:29.388Z,189.53
2023-01-11T07:37:29.653Z,192.10
2023-01-11T07:38:29.354Z,192.29
2023-01-11T07:39:42.992Z,192.54
2023-01-11T07:40:30.340Z,192.62
2023-01-11T07:41:29.282Z,193.12
2023-01-11T07:42:30.168Z,188.49
2023-01-11T07:43:30.798Z,192.63
2023-01-11T07:44:29.179Z,192.77
2023-01-11T07:45:40.852Z,190.46
2023-01-11T07:46:29.240Z,189.45
2023-01-11T07:47:29.084Z,176.87
2023-01-11T07:48:29.054Z,156.45
2023-01-11T07:49:29.018Z,148.52
2023-01-11T07:50:29.128Z,161.16
2023-01-11T07:51:28.992Z,178.00
2023-01-11T07:52:28.986Z,169.12
2023-01-11T07:53:28.963Z,162.47
2023-01-11T07:54:28.944Z,155.71
2023-01-11T07:56:31.107Z,143.52
2023-01-11T07:57:31.323Z,143.54
2023-01-11T07:58:28.915Z,143.57
2023-01-11T07:59:28.852Z,138.69
2023-01-11T08:00:28.844Z,137.40
2023-01-11T08:01:28.815Z,132.10
2023-01-11T08:02:28.909Z,134.99
2023-01-11T08:03:28.901Z,135.29
2023-01-11T08:04:28.755Z,130.25
2023-01-11T08:05:28.763Z,127.76
2023-01-11T08:06:28.700Z,129.15
2023-01-11T08:07:28.698Z,130.16
2023-01-11T08:08:28.651Z,131.80
2023-01-11T08:09:28.619Z,131.82
2023-01-11T08:10:28.635Z,135.96
2023-01-11T08:11:28.640Z,134.05
2023-01-11T08:12:31.127Z,137.47
2023-01-11T08:13:29.180Z,137.79
2023-01-11T08:20:28.511Z,138.61
2023-01-11T08:21:30.013Z,141.21
2023-01-11T08:22:28.413Z,147.27
2023-01-11T08:23:28.416Z,138.48
2023-01-11T08:24:28.368Z,141.52
2023-01-11T08:25:28.443Z,147.54
2023-01-11T08:26:28.320Z,156.35
2023-01-11T08:27:28.240Z,170.27
2023-01-11T08:28:28.202Z,174.01
2023-01-11T08:29:28.173Z,176.83
2023-01-11T08:30:28.225Z,178.91
2023-01-11T08:31:28.222Z,180.55
2023-01-11T08:32:28.073Z,181.48
2023-01-11T08:33:28.017Z,181.31
2023-01-11T08:34:28.071Z,182.97
2023-01-11T08:35:27.934Z,183.94
2023-01-11T08:36:28.276Z,182.40
2023-01-11T08:37:27.880Z,178.38
2023-01-11T08:38:28.452Z,178.02
2023-01-11T08:39:27.903Z,176.37
2023-01-11T08:40:28.027Z,177.72
2023-01-11T08:41:27.782Z,178.96
2023-01-11T08:42:27.717Z,179.20
2023-01-11T08:43:27.686Z,179.52
2023-01-11T08:44:34.378Z,180.65
2023-01-11T08:45:28.598Z,179.30
2023-01-11T08:46:27.584Z,180.05
2023-01-11T08:47:27.532Z,179.27
2023-01-11T08:48:27.469Z,179.96
2023-01-11T08:49:27.437Z,181.18
2023-01-11T08:50:27.555Z,183.28
2023-01-11T08:51:27.415Z,184.82
2023-01-11T08:52:27.382Z,184.06
2023-01-11T08:53:27.323Z,182.11
2023-01-11T08:54:27.269Z,182.21
2023-01-11T08:55:27.234Z,181.78
2023-01-11T08:56:27.246Z,181.60
2023-01-11T08:57:27.163Z,179.45
2023-01-11T08:58:27.161Z,178.83
2023-01-11T08:59:27.117Z,178.79
2023-01-11T09:00:27.136Z,178.83
2023-01-11T09:01:27.080Z,177.36
2023-01-11T09:02:27.028Z,175.30
2023-01-11T09:03:26.978Z,173.47
2023-01-11T09:04:26.932Z,178.82
2023-01-11T09:05:26.911Z,175.22
2023-01-11T09:06:26.907Z,173.53
2023-01-11T09:07:26.861Z,172.11
2023-01-11T09:08:26.815Z,167.71
2023-01-11T09:09:29.123Z,167.05
2023-01-11T09:10:29.422Z,167.17
2023-01-11T09:11:28.882Z,167.25
2023-01-11T09:12:28.861Z,167.23
2023-01-11T09:13:26.649Z,167.15
2023-01-11T09:14:26.674Z,167.19
2023-01-11T09:15:26.608Z,161.72
2023-01-11T09:16:26.601Z,159.76
2023-01-11T09:17:26.531Z,160.05
2023-01-11T09:18:26.517Z,158.43
2023-01-11T09:19:26.492Z,156.03
2023-01-11T09:20:26.529Z,149.99
2023-01-11T09:21:26.441Z,145.61
2023-01-11T09:22:26.397Z,143.90
2023-01-11T09:23:26.390Z,141.51
2023-01-11T09:24:26.351Z,140.58
2023-01-11T09:25:26.321Z,140.29
2023-01-11T09:26:26.283Z,136.59
2023-01-11T09:27:26.266Z,136.69
2023-01-11T09:28:26.234Z,129.88
2023-01-11T09:29:26.260Z,127.61
2023-01-11T09:30:26.223Z,123.17
2023-01-11T09:31:26.263Z,120.46
2023-01-11T09:32:26.141Z,126.34
2023-01-11T09:33:26.099Z,123.22
2023-01-11T09:34:26.065Z,113.94
2023-01-11T09:35:26.064Z,127.33
2023-01-11T09:36:26.045Z,127.79
2023-01-11T09:37:26.022Z,129.39
2023-01-11T09:38:25.993Z,130.66
2023-01-11T09:39:25.950Z,131.82
2023-01-11T09:40:25.964Z,135.71
2023-01-11T09:41:25.913Z,131.74
2023-01-11T09:42:25.901Z,134.07
2023-01-11T09:43:25.905Z,133.79
2023-01-11T09:44:25.824Z,132.56
2023-01-11T09:45:25.788Z,132.73
2023-01-11T09:46:25.787Z,131.73
2023-01-11T09:47:25.753Z,130.63
2023-01-11T09:48:25.704Z,97.92
2023-01-11T09:49:25.679Z,71.46
2023-01-11T09:50:25.679Z,79.57
2023-01-11T09:51:25.663Z,86.26
2023-01-11T09:52:25.654Z,91.40
2023-01-11T09:53:25.657Z,84.40
2023-01-11T09:54:25.618Z,79.78
2023-01-11T09:55:25.654Z,81.59
2023-01-11T09:56:25.669Z,80.91
2023-01-11T09:57:25.620Z,80.96
2023-01-11T09:58:25.668Z,81.90
2023-01-11T09:59:25.606Z,83.10
2023-01-11T10:00:25.714Z,84.06
2023-01-11T10:01:25.555Z,85.12
2023-01-11T10:02:25.636Z,91.15
2023-01-11T10:03:25.538Z,88.83
2023-01-11T10:04:25.542Z,92.04
2023-01-11T10:05:25.492Z,97.43
2023-01-11T10:06:25.448Z,96.23
2023-01-11T10:07:25.466Z,97.40
2023-01-11T10:18:28.736Z,101.38
2023-01-11T10:18:29.107Z,101.33
2023-01-11T10:18:30.455Z,100.98
2023-01-11T10:18:37.591Z,101.13
2023-01-11T10:18:49.436Z,101.41
2023-01-11T10:19:39.950Z,101.40
2023-01-11T10:20:26.390Z,101.16
2023-01-11T10:21:25.282Z,103.79
2023-01-11T10:22:25.267Z,107.49
2023-01-11T10:23:25.233Z,110.11
2023-01-11T10:24:25.203Z,115.17
2023-01-11T10:25:25.196Z,112.54
2023-01-11T10:26:25.154Z,99.71
2023-01-11T10:27:25.166Z,100.58
2023-01-11T10:28:25.139Z,95.62
2023-01-11T10:29:25.088Z,96.89
2023-01-11T10:30:25.080Z,88.07
2023-01-11T10:31:25.101Z,93.96
2023-01-11T10:32:25.005Z,92.23
2023-01-11T10:33:24.991Z,88.74
2023-01-11T10:34:24.963Z,106.73
2023-01-11T10:35:25.052Z,100.78
2023-01-11T10:36:24.919Z,101.23
2023-01-11T10:37:25.492Z,90.51
2023-01-11T10:38:24.906Z,95.94
2023-01-11T10:39:24.916Z,98.87
2023-01-11T10:40:24.851Z,86.51
2023-01-11T10:41:24.814Z,83.82
2023-01-11T10:42:24.783Z,93.28
2023-01-11T10:43:24.755Z,77.06
2023-01-11T10:44:24.757Z,93.29
2023-01-11T10:45:24.745Z,106.00
2023-01-11T10:46:24.697Z,110.59
2023-01-11T10:47:24.715Z,115.49
2023-01-11T10:48:24.694Z,104.64
2023-01-11T10:49:24.649Z,106.81
2023-01-11T10:50:24.615Z,108.80
2023-01-11T10:51:24.601Z,107.63
2023-01-11T10:52:24.561Z,112.67
2023-01-11T10:53:24.566Z,110.39
2023-01-11T10:54:24.523Z,110.73
2023-01-11T10:55:24.484Z,108.49
2023-01-11T10:56:24.522Z,110.94
2023-01-11T10:57:24.442Z,110.50
2023-01-11T11:08:24.205Z,109.05
2023-01-11T11:13:24.115Z,100.90
2023-01-11T11:37:23.405Z,111.80
2023-01-11T11:38:23.383Z,112.72
2023-01-11T11:39:23.379Z,111.61
2023-01-11T11:40:23.311Z,114.40
2023-01-11T11:41:23.287Z,113.76
2023-01-11T11:42:23.251Z,112.23
2023-01-11T11:43:23.212Z,113.09
2023-01-11T11:44:23.201Z,114.52
2023-01-11T11:45:23.178Z,116.05
2023-01-11T11:46:23.175Z,118.07
2023-01-11T11:47:23.073Z,115.66
2023-01-11T11:48:23.037Z,116.46
2023-01-11T11:49:23.010Z,116.65
2023-01-11T11:50:42.388Z,116.66
2023-01-11T11:51:23.960Z,116.67
2023-01-11T11:52:22.908Z,117.14
2023-01-11T11:53:22.881Z,117.80
2023-01-11T11:54:22.862Z,119.04
2023-01-11T11:55:22.815Z,121.22
2023-01-11T11:56:22.787Z,119.71
2023-01-11T11:57:22.771Z,119.98
2023-01-11T11:58:22.694Z,121.08
2023-01-11T11:59:22.689Z,122.10
2023-01-11T12:00:22.640Z,122.67
2023-01-11T12:01:22.604Z,122.84
2023-01-11T12:02:22.609Z,122.85
2023-01-11T12:03:22.506Z,122.50
2023-01-11T12:04:22.565Z,122.18
2023-01-11T12:05:22.453Z,123.56
2023-01-11T12:06:22.393Z,123.51
2023-01-11T12:07:22.334Z,122.88
2023-01-11T12:08:22.331Z,122.83
2023-01-11T12:09:22.290Z,123.09
2023-01-11T12:10:22.241Z,123.38
2023-01-11T12:11:22.188Z,123.88
2023-01-11T12:12:24.952Z,124.97
2023-01-11T12:13:22.136Z,123.04
2023-01-11T12:14:22.123Z,123.47
2023-01-11T12:15:22.075Z,123.62
2023-01-11T12:16:22.048Z,126.20
2023-01-11T12:17:21.979Z,123.83
2023-01-11T12:18:21.923Z,123.43
2023-01-11T12:19:21.889Z,121.83
2023-01-11T12:20:21.859Z,123.47
2023-01-11T12:21:21.831Z,121.28
2023-01-11T12:22:21.789Z,120.72
2023-01-11T12:23:21.774Z,120.72
2023-01-11T12:24:21.800Z,118.31
2023-01-11T12:25:21.695Z,116.84
2023-01-11T12:26:21.680Z,118.75
2023-01-11T12:27:21.731Z,117.27
2023-01-11T12:28:21.582Z,116.73
2023-01-11T12:29:21.610Z,113.69
2023-01-11T12:30:21.526Z,113.12
2023-01-11T12:31:21.514Z,114.62
2023-01-11T12:32:21.484Z,116.73
2023-01-11T12:33:21.459Z,116.29
2023-01-11T12:34:21.500Z,117.73
2023-01-11T12:35:21.426Z,117.88
2023-01-11T12:36:21.384Z,115.10
2023-01-11T12:37:21.300Z,113.69
2023-01-11T12:38:21.272Z,114.75
2023-01-11T12:39:21.254Z,114.85
2023-01-11T12:40:21.214Z,117.94
2023-01-11T12:41:21.237Z,119.74
2023-01-11T12:42:21.161Z,124.98
2023-01-11T12:43:21.147Z,124.91
2023-01-11T12:44:21.253Z,122.65
2023-01-11T12:45:21.078Z,125.42
2023-01-11T12:46:21.242Z,125.87
2023-01-11T12:47:21.020Z,128.75
2023-01-11T12:48:21.001Z,131.80
2023-01-11T12:49:20.960Z,131.81
2023-01-11T12:50:20.931Z,132.11
2023-01-11T12:51:20.896Z,132.98
2023-01-11T12:52:20.871Z,135.82
2023-01-11T12:53:20.822Z,141.24
2023-01-11T12:54:20.921Z,149.14
2023-01-11T12:55:20.814Z,151.21
2023-01-11T12:56:20.761Z,154.14
2023-01-11T12:57:20.698Z,159.59
2023-01-11T12:58:20.677Z,162.81
2023-01-11T12:59:20.629Z,162.46
2023-01-11T13:00:20.622Z,163.60
2023-01-11T13:01:20.660Z,167.19
2023-01-11T13:02:20.585Z,175.95
2023-01-11T13:03:20.505Z,179.24
2023-01-11T13:04:20.561Z,184.04
2023-01-11T13:05:20.455Z,188.05
2023-01-11T13:06:20.429Z,196.01
2023-01-11T13:07:20.401Z,199.59
2023-01-11T13:08:20.363Z,203.92
2023-01-11T13:09:20.311Z,209.66
2023-01-11T13:10:20.348Z,214.27
2023-01-11T13:11:20.254Z,217.29
2023-01-11T13:12:20.242Z,218.69
2023-01-11T13:13:20.196Z,224.64
2023-01-11T13:14:22.203Z,230.63
2023-01-11T13:15:20.116Z,233.17
2023-01-11T13:16:20.167Z,232.83
2023-01-11T13:17:20.059Z,232.31
2023-01-11T13:18:20.050Z,235.88
2023-01-11T13:19:20.005Z,234.51
2023-01-11T13:20:19.977Z,237.24
2023-01-11T13:21:19.981Z,241.04
2023-01-11T13:22:19.937Z,242.72
2023-01-11T13:23:19.897Z,247.54
2023-01-11T13:24:19.948Z,248.59
2023-01-11T13:25:19.857Z,248.38
2023-01-11T13:26:19.904Z,249.16
2023-01-11T13:27:19.914Z,249.35
2023-01-11T13:28:24.007Z,249.51
2023-01-11T13:29:19.800Z,249.58
2023-01-11T13:30:19.785Z,250.55
2023-01-11T13:31:19.855Z,252.62
2023-01-11T13:32:19.700Z,255.90
2023-01-11T13:33:19.676Z,259.73
2023-01-11T13:34:19.688Z,249.34
2023-01-11T13:35:19.612Z,249.55
2023-01-11T13:36:23.718Z,250.10
2023-01-11T13:37:19.564Z,249.64
2023-01-11T13:38:19.508Z,250.28
2023-01-11T13:39:19.559Z,251.83
2023-01-11T13:40:19.440Z,254.23
2023-01-11T13:41:19.426Z,258.66
2023-01-11T13:42:19.446Z,248.55
2023-01-11T13:43:19.374Z,248.81
2023-01-11T13:44:19.413Z,248.71
2023-01-11T13:45:19.302Z,248.33
2023-01-11T13:46:19.347Z,249.81
2023-01-11T13:47:20.062Z,248.25
2023-01-11T13:48:19.199Z,250.00
2023-01-11T13:49:19.314Z,248.19
2023-01-11T13:50:19.142Z,249.26
2023-01-11T13:51:20.050Z,249.60
2023-01-11T13:52:19.057Z,250.00
2023-01-11T13:53:19.058Z,250.00
2023-01-11T13:54:19.036Z,249.51
2023-01-11T13:55:26.128Z,250.00
2023-01-11T13:56:19.964Z,250.18
2023-01-11T13:57:18.899Z,250.49
2023-01-11T13:58:18.880Z,251.23
2023-01-11T13:59:18.853Z,252.85
2023-01-11T14:00:18.819Z,255.29
2023-01-11T14:01:18.803Z,249.24
2023-01-11T14:02:18.742Z,250.00
2023-01-11T14:03:18.779Z,249.48
2023-01-11T14:04:18.748Z,248.40
2023-01-11T14:05:18.663Z,249.16
2023-01-11T14:06:18.597Z,249.30
2023-01-11T14:07:18.606Z,249.70
2023-01-11T14:08:18.558Z,250.44
2023-01-11T14:09:18.537Z,251.31
2023-01-11T14:10:18.503Z,254.81
2023-01-11T14:11:18.455Z,248.18
2023-01-11T14:12:18.441Z,249.93
2023-01-11T14:13:18.441Z,248.79
2023-01-11T14:14:18.489Z,250.00
2023-01-11T14:15:18.334Z,249.90
2023-01-11T14:16:18.321Z,248.62
2023-01-11T14:17:18.268Z,249.53
2023-01-11T14:18:18.268Z,248.79
2023-01-11T14:19:18.221Z,248.96
2023-01-11T14:20:18.221Z,248.46
2023-01-11T14:21:18.139Z,248.96
2023-01-11T14:22:18.089Z,250.00
2023-01-11T14:23:18.122Z,248.63
2023-01-11T14:24:18.030Z,248.65
2023-01-11T14:25:18.007Z,249.51
2023-01-11T14:26:18.177Z,249.19
2023-01-11T14:27:17.992Z,249.20
2023-01-11T14:28:17.909Z,248.65
2023-01-11T14:29:17.886Z,247.70
2023-01-11T14:30:17.837Z,247.48
2023-01-11T14:31:17.890Z,250.00
2023-01-11T14:32:17.785Z,248.59
2023-01-11T14:33:17.736Z,250.00
2023-01-11T14:34:17.795Z,248.57
2023-01-11T14:35:17.695Z,249.36
2023-01-11T14:36:17.646Z,249.49
2023-01-11T14:37:17.620Z,249.08
2023-01-11T14:38:17.593Z,248.17
2023-01-11T14:39:17.577Z,248.97
2023-01-11T14:40:17.523Z,249.24
2023-01-11T14:41:17.485Z,248.47
2023-01-11T14:42:30.428Z,248.68
2023-01-11T14:43:18.417Z,248.80
2023-01-11T14:44:17.450Z,248.87
2023-01-11T14:45:17.341Z,249.46
2023-01-11T14:46:17.394Z,249.74
2023-01-11T14:47:17.252Z,249.10
2023-01-11T14:48:17.224Z,249.56
2023-01-11T14:49:17.313Z,249.67
2023-01-11T14:50:17.168Z,248.47
2023-01-11T14:51:17.135Z,248.30
2023-01-11T14:52:18.589Z,248.86
2023-01-11T14:53:17.059Z,248.28
2023-01-11T14:54:17.086Z,248.15
2023-01-11T14:55:16.969Z,247.70
2023-01-11T14:56:16.909Z,247.51
2023-01-11T14:57:16.886Z,248.49
2023-01-11T14:58:16.813Z,246.59
2023-01-11T14:59:16.808Z,247.91
2023-01-11T15:00:16.780Z,248.07
2023-01-11T15:01:16.748Z,248.18
2023-01-11T15:02:16.747Z,248.34
2023-01-11T15:03:16.710Z,248.93
2023-01-11T15:04:16.734Z,248.44
2023-01-11T15:05:16.692Z,248.09
2023-01-11T15:06:16.584Z,248.22
2023-01-11T15:07:16.529Z,248.42
2023-01-11T15:08:16.496Z,249.48
2023-01-11T15:09:16.469Z,250.38
2023-01-11T15:10:16.426Z,250.00
2023-01-11T15:11:16.384Z,248.22
2023-01-11T15:12:16.385Z,248.40
2023-01-11T15:13:16.364Z,248.46
2023-01-11T15:14:16.353Z,247.64
2023-01-11T15:15:16.255Z,248.11
2023-01-11T15:16:16.272Z,248.19
2023-01-11T15:17:16.186Z,249.31
2023-01-11T15:18:16.154Z,248.02
2023-01-11T15:19:16.120Z,246.78
2023-01-11T15:20:16.094Z,248.17
2023-01-11T15:21:16.138Z,247.28
2023-01-11T15:22:16.037Z,248.29
2023-01-11T15:23:15.999Z,248.76
2023-01-11T15:24:15.983Z,249.01
2023-01-11T15:25:15.911Z,249.11
2023-01-11T15:26:15.876Z,249.13
2023-01-11T15:27:15.913Z,249.49
2023-01-11T15:28:15.833Z,248.48
2023-01-11T15:29:15.780Z,250.68
2023-01-11T15:30:15.746Z,248.56
2023-01-11T15:31:15.760Z,249.15
2023-01-11T15:32:15.663Z,248.72
2023-01-11T15:33:15.681Z,249.85
2023-01-11T15:34:15.604Z,249.24
2023-01-11T15:35:15.603Z,247.99
2023-01-11T15:36:15.574Z,248.49
2023-01-11T15:37:15.531Z,249.45
2023-01-11T15:38:15.492Z,247.58
2023-01-11T15:39:15.472Z,247.29
2023-01-11T15:40:15.443Z,248.53
2023-01-11T15:41:15.400Z,249.97
2023-01-11T15:42:15.362Z,248.78
2023-01-11T15:43:15.326Z,248.23
2023-01-11T15:44:15.292Z,248.51
2023-01-11T15:45:15.293Z,249.76
2023-01-11T15:46:15.283Z,247.59
2023-01-11T15:47:15.206Z,247.99
2023-01-11T15:48:15.174Z,247.82
2023-01-11T15:49:15.156Z,248.35
2023-01-11T15:50:15.121Z,248.11
2023-01-11T15:51:15.077Z,248.72
2023-01-11T15:52:15.061Z,247.13
2023-01-11T15:53:15.070Z,248.40
2023-01-11T15:54:14.991Z,247.31
2023-01-11T15:55:14.979Z,248.02
2023-01-11T15:56:14.977Z,247.52
2023-01-11T15:57:14.908Z,247.76
2023-01-11T15:58:14.881Z,246.85
2023-01-11T15:59:14.848Z,248.39
2023-01-11T16:00:14.824Z,247.90
2023-01-11T16:01:14.833Z,247.42
2023-01-11T16:02:14.769Z,247.76
2023-01-11T16:03:14.752Z,247.88
2023-01-11T16:04:14.784Z,247.53
2023-01-11T16:05:14.688Z,249.06
2023-01-11T16:06:14.704Z,247.92
2023-01-11T16:07:14.658Z,248.69
2023-01-11T16:08:14.631Z,248.21
2023-01-11T16:09:14.705Z,247.88
2023-01-11T16:10:14.630Z,247.95
2023-01-11T16:11:14.595Z,246.59
2023-01-11T16:12:14.559Z,247.55
2023-01-11T16:13:14.530Z,248.10
2023-01-11T16:14:14.503Z,246.03
2023-01-11T16:15:14.490Z,249.33
2023-01-11T16:16:14.557Z,247.12
2023-01-11T16:17:14.443Z,246.64
2023-01-11T16:18:14.406Z,246.83
2023-01-11T16:19:14.390Z,248.71
2023-01-11T16:20:14.356Z,247.98
2023-01-11T16:21:14.330Z,248.62
2023-01-11T16:22:14.289Z,246.75
2023-01-11T16:23:14.232Z,247.22
2023-01-11T16:24:14.228Z,246.54
2023-01-11T16:25:14.203Z,247.66
2023-01-11T16:26:14.152Z,247.51
2023-01-11T16:27:14.150Z,247.12
2023-01-11T16:28:14.084Z,247.26
2023-01-11T16:29:14.064Z,247.27
2023-01-11T16:30:14.013Z,247.25
2023-01-11T16:31:14.005Z,248.40
2023-01-11T16:32:13.936Z,248.48
2023-01-11T16:33:13.904Z,247.67
2023-01-11T16:34:13.867Z,247.42
2023-01-11T16:35:13.814Z,248.86
2023-01-11T16:36:13.792Z,247.85
2023-01-11T16:37:13.757Z,247.34
2023-01-11T16:38:13.723Z,247.21
2023-01-11T16:39:13.696Z,248.59
2023-01-11T16:40:13.629Z,247.88
2023-01-11T16:41:13.626Z,247.38
2023-01-11T16:42:13.583Z,247.47
2023-01-11T16:43:13.542Z,245.93
2023-01-11T16:44:13.497Z,247.27
2023-01-11T16:45:13.623Z,247.65
2023-01-11T16:46:13.526Z,246.74
2023-01-11T16:47:13.430Z,246.23
2023-01-11T16:48:13.408Z,245.51
2023-01-11T16:49:13.372Z,246.89
2023-01-11T16:50:13.337Z,246.08
2023-01-11T16:51:13.308Z,248.01
2023-01-11T16:52:13.286Z,246.80
2023-01-11T16:53:13.246Z,247.85
2023-01-11T16:54:13.341Z,245.02
2023-01-11T16:55:13.224Z,244.02
2023-01-11T16:56:13.179Z,245.58
2023-01-11T16:57:15.103Z,245.35
2023-01-11T16:58:13.133Z,246.77
2023-01-11T16:59:13.087Z,245.33
2023-01-11T17:00:13.073Z,243.41
2023-01-11T17:01:13.132Z,246.46
2023-01-11T17:02:13.076Z,245.91
2023-01-11T17:03:12.993Z,246.09
2023-01-11T17:04:19.213Z,246.27
2023-01-11T17:05:13.943Z,246.26
2023-01-11T17:06:12.909Z,246.45
2023-01-11T17:07:12.896Z,245.24
2023-01-11T17:08:12.892Z,246.27
2023-01-11T17:09:19.437Z,246.38
2023-01-11T17:10:13.840Z,246.22
2023-01-11T17:11:12.806Z,246.21
2023-01-11T17:12:12.833Z,245.39
2023-01-11T17:13:12.749Z,244.95
2023-01-11T17:14:12.741Z,244.68
2023-01-11T17:15:12.687Z,245.53
2023-01-11T17:16:12.718Z,245.59
2023-01-11T17:17:12.951Z,243.76
2023-01-11T17:18:12.595Z,243.97
2023-01-11T17:19:12.546Z,244.05
2023-01-11T17:20:12.519Z,244.78
2023-01-11T17:21:12.494Z,243.28
2023-01-11T17:22:12.459Z,242.28
2023-01-11T17:23:12.415Z,243.40
2023-01-11T17:24:12.395Z,243.37
2023-01-11T17:25:12.346Z,242.78
2023-01-11T17:26:14.809Z,243.76
2023-01-11T17:27:12.537Z,241.86
2023-01-11T17:28:12.485Z,243.21
2023-01-11T17:29:12.477Z,244.01
2023-01-11T17:30:12.420Z,242.74
2023-01-11T17:31:12.388Z,243.27
2023-01-11T17:32:12.365Z,242.58
2023-01-11T17:33:12.344Z,243.08
2023-01-11T17:34:12.354Z,241.89
2023-01-11T17:35:12.397Z,240.73
2023-01-11T17:36:12.401Z,241.39
2023-01-11T17:37:12.447Z,242.00
2023-01-11T17:38:12.494Z,242.30
2023-01-11T17:39:12.501Z,240.77
2023-01-11T17:40:12.526Z,241.69
2023-01-11T17:41:12.616Z,241.91
2023-01-11T17:42:12.597Z,241.56
2023-01-11T17:43:12.634Z,241.58
2023-01-11T17:44:12.655Z,241.02
2023-01-11T17:45:12.695Z,240.73
2023-01-11T17:46:12.730Z,240.28
2023-01-11T17:47:12.749Z,240.81
2023-01-11T17:48:12.772Z,239.47
2023-01-11T17:49:12.806Z,240.17
2023-01-11T17:50:14.699Z,239.55
2023-01-11T17:51:12.818Z,238.81
2023-01-11T17:52:12.780Z,240.88
2023-01-11T17:53:12.791Z,240.00
2023-01-11T17:54:12.722Z,238.47
2023-01-11T17:55:12.703Z,238.03
2023-01-11T17:56:12.664Z,239.03
2023-01-11T17:57:12.643Z,237.88
2023-01-11T17:58:12.680Z,239.13
2023-01-11T17:59:12.682Z,238.26
2023-01-11T18:00:12.719Z,238.34
2023-01-11T18:01:12.807Z,236.49
2023-01-11T18:02:12.810Z,235.66
2023-01-11T18:03:12.826Z,238.19
2023-01-11T18:04:12.848Z,236.94
2023-01-11T18:05:12.879Z,237.71
2023-01-11T18:06:12.908Z,237.38
2023-01-11T18:07:12.954Z,237.21
2023-01-11T18:08:12.974Z,235.68
2023-01-11T18:09:13.014Z,235.18
2023-01-11T18:10:13.018Z,235.36
2023-01-11T18:11:13.062Z,238.08
2023-01-11T18:12:13.099Z,235.37
2023-01-11T18:13:13.121Z,236.57
2023-01-11T18:14:13.193Z,235.43
2023-01-11T18:15:13.194Z,235.42
2023-01-11T18:16:13.237Z,234.63
2023-01-11T18:17:13.262Z,237.12
2023-01-11T18:18:13.275Z,234.00
2023-01-11T18:19:13.331Z,234.84
2023-01-11T18:20:13.345Z,234.86
2023-01-11T18:21:13.375Z,234.47
2023-01-11T18:22:13.408Z,234.06
2023-01-11T18:23:13.450Z,234.91
2023-01-11T18:24:13.474Z,233.23
2023-01-11T18:25:13.508Z,233.15
2023-01-11T18:26:13.522Z,232.63
2023-01-11T18:27:13.634Z,234.64
2023-01-11T18:28:13.582Z,233.37
2023-01-11T18:29:13.622Z,233.04
2023-01-11T18:30:13.646Z,233.65
2023-01-11T18:31:13.707Z,232.07
2023-01-11T18:32:13.710Z,233.45
2023-01-11T18:33:13.741Z,234.00
2023-01-11T18:34:13.797Z,232.94
2023-01-11T18:35:13.790Z,232.27
2023-01-11T18:36:13.839Z,231.45
2023-01-11T18:37:13.865Z,230.77
2023-01-11T18:38:13.876Z,232.51
2023-01-11T18:39:13.922Z,230.45
2023-01-11T18:40:13.933Z,232.23
2023-01-11T18:41:13.976Z,231.53
2023-01-11T18:42:14.000Z,230.45
2023-01-11T18:43:14.055Z,230.95
2023-01-11T18:44:14.061Z,230.21
2023-01-11T18:45:14.159Z,231.20
2023-01-11T18:46:14.151Z,231.24
2023-01-11T18:47:14.179Z,229.02
2023-01-11T18:48:14.195Z,229.90
2023-01-11T18:49:14.344Z,229.25
2023-01-11T18:50:14.267Z,228.76
2023-01-11T18:51:14.306Z,230.38
2023-01-11T18:52:14.318Z,230.60
2023-01-11T18:53:14.356Z,229.10
2023-01-11T18:54:14.412Z,228.94